Bluffton, South Carolina
Current Conditions -  °F | °C
As of 5:15 AM on Monday 20 Oct 2014 (Local Time) from KHXD Reporting Station
NA  
Wind Chill: 13°   Ceiling: NA
Heat Index: 13°   Visibility: NA
Dew Point: 12°   Wind: 3mph
Humidity: 94%   Direction: 350°N
Pressure: 30.12"   Gusts: NA
Location:  32.24°N, 80.86°W
Report Text: KHXD 200915Z AUTO 35003KT 13/12 A3012 RMK AO2 P0000
Loading
Personal Weather Stations






























Interactive Weather Map
Tropical Storm Tracking
New forecast layout! Learn more

10-Day Weather Forecast

Advertisements
Track Severe Weather on mobile